Time;durP1;ratioP1;P1;durP2;ratioP2;P2;SDS_P1;SDS_P2;PMS_P1;PMS_P2;Temp;Humidity;BMP_temperature;BMP_pressure;BME280_temperature;BME280_humidity;BME280_pressure;Samples;Min_cycle;Max_cycle;Signal;HPM_P1;HPM_P2
2023/01/05 00:02:07;;;;;;;0.88;0.22;;;;;;;;;;5013485;28;20026;-84
2023/01/05 00:04:34;;;;;;;0.32;0.30;;;;;;;;;;5022859;28;20171;-84
2023/01/05 00:07:00;;;;;;;0.17;0.17;;;;;;;;;;5018171;28;20018;-84
2023/01/05 00:09:26;;;;;;;0.10;0.10;;;;;;;;;;5011125;28;20025;-84
2023/01/05 00:22:57;;;;;;;0.55;0.22;;;;;;;;;;5017907;28;20041;-84
2023/01/05 00:25:24;;;;;;;0.65;0.40;;;;;;;;;;5000936;28;20030;-84
2023/01/05 00:27:52;;;;;;;0.20;0.20;;;;;;;;;;5020395;28;20095;-84
2023/01/05 00:30:20;;;;;;;0.10;0.10;;;;;;;;;;5018220;28;20021;-84
2023/01/05 00:32:46;;;;;;;0.10;0.10;;;;;;;;;;4999615;28;20076;-84
2023/01/05 00:35:13;;;;;;;0.28;0.05;;;;;;;;;;4996510;28;20030;-84
2023/01/05 00:37:39;;;;;;;0.30;0.30;;;;;;;;;;4996476;28;20026;-84
2023/01/05 00:40:07;;;;;;;0.25;0.20;;;;;;;;;;4998292;28;20029;-83
2023/01/05 00:42:33;;;;;;;1.45;0.25;;;;;;;;;;5016214;28;20046;-83
2023/01/05 00:44:59;;;;;;;0.30;0.10;;;;;;;;;;5026838;28;20022;-83
2023/01/05 00:47:25;;;;;;;0.45;0.10;;;;;;;;;;5016650;28;20026;-83
2023/01/05 00:49:51;;;;;;;0.45;0.30;;;;;;;;;;4997873;28;20033;-83
2023/01/05 00:52:17;;;;;;;0.80;0.30;;;;;;;;;;5026025;28;20030;-83
2023/01/05 00:54:44;;;;;;;0.30;0.15;;;;;;;;;;4997374;28;20026;-84
2023/01/05 00:57:14;;;;;;;0.08;0.08;;;;;;;;;;5022372;28;20025;-87
2023/01/05 00:59:40;;;;;;;0.10;0.10;;;;;;;;;;5032515;28;20466;-85
2023/01/05 01:02:06;;;;;;;0.15;0.10;;;;;;;;;;4997497;28;20030;-85
2023/01/05 01:04:33;;;;;;;0.10;0.10;;;;;;;;;;4997786;28;20033;-85
2023/01/05 01:07:01;;;;;;;0.55;0.10;;;;;;;;;;5000322;28;20030;-85
2023/01/05 01:09:27;;;;;;;0.00;0.00;;;;;;;;;;5025196;28;20038;-84
2023/01/05 01:11:53;;;;;;;0.43;0.10;;;;;;;;;;5016243;28;20495;-85
2023/01/05 01:14:19;;;;;;;0.08;0.08;;;;;;;;;;4999636;28;20026;-85
2023/01/05 01:16:45;;;;;;;0.10;0.10;;;;;;;;;;5016968;28;20087;-85
2023/01/05 01:19:15;;;;;;;0.63;0.00;;;;;;;;;;4998010;28;20492;-85
2023/01/05 01:21:42;;;;;;;0.20;0.20;;;;;;;;;;5023239;28;20547;-84
2023/01/05 01:24:08;;;;;;;0.20;0.20;;;;;;;;;;5012410;28;20470;-85
2023/01/05 01:26:34;;;;;;;0.10;0.10;;;;;;;;;;5030126;28;20022;-85
2023/01/05 01:29:01;;;;;;;0.10;0.10;;;;;;;;;;5005574;28;20364;-86
2023/01/05 01:31:27;;;;;;;0.10;0.10;;;;;;;;;;5015193;28;20033;-86
2023/01/05 01:33:53;;;;;;;0.00;0.00;;;;;;;;;;4997002;28;20049;-87
2023/01/05 01:36:19;;;;;;;0.30;0.13;;;;;;;;;;4998738;28;20120;-86
2023/01/05 01:38:45;;;;;;;0.30;0.15;;;;;;;;;;5002685;28;20044;-85
2023/01/05 01:41:12;;;;;;;0.10;0.10;;;;;;;;;;4999906;28;20547;-84
2023/01/05 01:43:46;;;;;;;0.10;0.10;;;;;;;;;;4999739;28;20025;-85
2023/01/05 01:46:13;;;;;;;0.10;0.10;;;;;;;;;;4999460;28;20476;-85
2023/01/05 01:48:41;;;;;;;0.10;0.10;;;;;;;;;;4998976;28;20041;-83
2023/01/05 01:51:16;;;;;;;0.52;0.10;;;;;;;;;;4995523;28;20034;-85
2023/01/05 01:53:43;;;;;;;0.10;0.10;;;;;;;;;;4991995;28;20033;-84
2023/01/05 01:56:13;;;;;;;0.05;0.05;;;;;;;;;;4997744;28;20113;-84
2023/01/05 01:58:40;;;;;;;0.38;0.20;;;;;;;;;;5001877;28;20022;-84
2023/01/05 02:01:06;;;;;;;0.08;0.08;;;;;;;;;;5018781;28;20021;-83
2023/01/05 02:03:32;;;;;;;0.05;0.00;;;;;;;;;;5000801;28;20036;-83
2023/01/05 02:05:58;;;;;;;0.10;0.10;;;;;;;;;;5000551;28;20054;-84
2023/01/05 02:08:30;;;;;;;0.88;0.10;;;;;;;;;;5000370;28;20053;-83
2023/01/05 02:11:05;;;;;;;1.35;0.08;;;;;;;;;;4999515;28;20026;-84
2023/01/05 02:13:54;;;;;;;0.03;0.03;;;;;;;;;;5017714;28;20026;-83
2023/01/05 02:16:39;;;;;;;0.15;0.10;;;;;;;;;;5018345;28;20030;-84
2023/01/05 02:19:05;;;;;;;0.10;0.10;;;;;;;;;;5000504;28;20045;-84
2023/01/05 02:21:54;;;;;;;0.10;0.10;;;;;;;;;;5002095;28;20062;-84
2023/01/05 02:24:30;;;;;;;0.65;0.15;;;;;;;;;;5013267;28;20057;-84
2023/01/05 02:27:11;;;;;;;0.15;0.10;;;;;;;;;;4999797;28;20030;-86
2023/01/05 02:29:53;;;;;;;0.38;0.30;;;;;;;;;;5002297;28;20423;-84
2023/01/05 02:32:22;;;;;;;2.78;0.28;;;;;;;;;;4983352;28;20034;-84
2023/01/05 02:34:57;;;;;;;0.57;0.22;;;;;;;;;;5011556;28;20026;-85
2023/01/05 02:37:31;;;;;;;1.30;0.20;;;;;;;;;;5018395;28;20030;-87
2023/01/05 02:40:03;;;;;;;0.32;0.20;;;;;;;;;;5011785;28;20038;-85
2023/01/05 02:42:31;;;;;;;0.15;0.15;;;;;;;;;;5007364;28;20029;-85
2023/01/05 02:45:00;;;;;;;0.00;0.00;;;;;;;;;;5035326;28;20030;-85
2023/01/05 02:47:29;;;;;;;0.28;0.08;;;;;;;;;;5039106;28;20021;-86
2023/01/05 02:50:00;;;;;;;0.35;0.10;;;;;;;;;;5029371;28;20034;-85
2023/01/05 02:52:27;;;;;;;0.85;0.15;;;;;;;;;;5020945;28;20014;-86
2023/01/05 02:55:03;;;;;;;1.80;0.10;;;;;;;;;;5008344;28;20029;-85
2023/01/05 02:57:47;;;;;;;1.52;0.20;;;;;;;;;;5015021;28;20496;-85
2023/01/05 03:00:25;;;;;;;1.75;0.20;;;;;;;;;;5004022;28;20034;-86
2023/01/05 03:02:54;;;;;;;0.10;0.10;;;;;;;;;;5010127;28;20022;-86
2023/01/05 03:05:28;;;;;;;0.10;0.10;;;;;;;;;;4990415;28;20524;-85
2023/01/05 03:08:05;;;;;;;0.43;0.10;;;;;;;;;;5018417;28;20025;-85
2023/01/05 03:16:04;;;;;;;0.15;0.10;;;;;;;;;;5020000;28;20056;-85
2023/01/05 03:18:31;;;;;;;0.10;0.10;;;;;;;;;;4999652;28;20022;-84
2023/01/05 03:20:57;;;;;;;0.95;0.10;;;;;;;;;;5001424;28;20040;-85
2023/01/05 03:37:37;;;;;;;0.80;0.10;;;;;;;;;;5024841;28;20080;-85
2023/01/05 03:40:07;;;;;;;0.10;0.10;;;;;;;;;;5017627;28;20384;-85
2023/01/05 03:42:33;;;;;;;0.10;0.10;;;;;;;;;;5002809;28;20033;-85
2023/01/05 03:44:59;;;;;;;0.22;0.22;;;;;;;;;;5034078;28;20033;-84
2023/01/05 03:47:25;;;;;;;0.15;0.10;;;;;;;;;;4999123;28;20029;-84
2023/01/05 03:49:51;;;;;;;0.10;0.10;;;;;;;;;;5005459;28;20057;-85
2023/01/05 03:52:17;;;;;;;0.00;0.00;;;;;;;;;;5007495;28;20029;-85
2023/01/05 03:54:43;;;;;;;0.93;0.10;;;;;;;;;;5034746;28;20036;-85
2023/01/05 03:57:09;;;;;;;0.10;0.10;;;;;;;;;;4998268;28;20033;-85
2023/01/05 03:59:35;;;;;;;0.10;0.10;;;;;;;;;;5015716;28;20103;-85
2023/01/05 04:02:08;;;;;;;2.10;0.13;;;;;;;;;;5017887;28;20079;-85
2023/01/05 04:04:34;;;;;;;0.10;0.10;;;;;;;;;;5007287;28;20124;-82
2023/01/05 04:07:00;;;;;;;0.03;0.03;;;;;;;;;;5033119;28;20030;-84
2023/01/05 04:09:26;;;;;;;0.22;0.10;;;;;;;;;;5025516;28;20014;-84
2023/01/05 04:11:52;;;;;;;4.30;0.40;;;;;;;;;;4998589;28;20022;-84
2023/01/05 04:14:18;;;;;;;1.20;0.25;;;;;;;;;;5007884;28;20025;-84
2023/01/05 04:16:44;;;;;;;0.17;0.10;;;;;;;;;;4998904;28;20029;-84
2023/01/05 04:19:10;;;;;;;0.10;0.10;;;;;;;;;;4998903;28;20080;-83
2023/01/05 04:21:37;;;;;;;0.10;0.10;;;;;;;;;;4997170;28;20061;-85
2023/01/05 04:24:03;;;;;;;0.10;0.10;;;;;;;;;;5014596;28;20014;-87
2023/01/05 04:26:29;;;;;;;0.55;0.20;;;;;;;;;;5016025;28;20057;-85
2023/01/05 04:28:55;;;;;;;0.10;0.05;;;;;;;;;;5027779;28;20104;-86
2023/01/05 04:31:21;;;;;;;0.25;0.10;;;;;;;;;;5018225;28;20053;-88
2023/01/05 04:33:47;;;;;;;0.10;0.10;;;;;;;;;;5013571;28;20014;-85
2023/01/05 04:36:13;;;;;;;0.63;0.10;;;;;;;;;;5023870;28;20084;-86
2023/01/05 04:38:39;;;;;;;0.10;0.10;;;;;;;;;;4999279;28;20026;-85
2023/01/05 04:41:05;;;;;;;1.10;0.10;;;;;;;;;;4999733;28;20021;-86
2023/01/05 04:43:31;;;;;;;0.30;0.20;;;;;;;;;;4999664;28;20082;-87
2023/01/05 04:45:57;;;;;;;0.30;0.20;;;;;;;;;;5031438;28;20022;-85
2023/01/05 04:48:23;;;;;;;1.52;0.15;;;;;;;;;;5018444;28;20034;-86
2023/01/05 04:50:53;;;;;;;0.20;0.20;;;;;;;;;;5003148;28;20045;-86
2023/01/05 04:53:19;;;;;;;0.10;0.10;;;;;;;;;;5010243;28;20053;-85
2023/01/05 04:55:45;;;;;;;0.38;0.10;;;;;;;;;;5020805;28;20037;-86
2023/01/05 04:58:11;;;;;;;0.25;0.20;;;;;;;;;;5026549;28;20499;-86
2023/01/05 05:00:38;;;;;;;0.30;0.20;;;;;;;;;;4998296;28;20401;-85
2023/01/05 05:03:04;;;;;;;2.08;0.30;;;;;;;;;;5004928;28;20033;-85
2023/01/05 05:05:30;;;;;;;0.20;0.20;;;;;;;;;;5001158;28;20022;-85
2023/01/05 05:07:56;;;;;;;0.80;0.20;;;;;;;;;;5022940;28;20392;-85
2023/01/05 05:10:22;;;;;;;1.20;0.20;;;;;;;;;;5018736;28;20018;-85
2023/01/05 05:12:48;;;;;;;0.22;0.20;;;;;;;;;;5017904;28;20392;-86
2023/01/05 05:15:14;;;;;;;1.65;0.10;;;;;;;;;;5016886;28;20034;-86
2023/01/05 05:17:40;;;;;;;0.10;0.10;;;;;;;;;;5023799;28;20106;-86
2023/01/05 05:20:06;;;;;;;1.75;0.10;;;;;;;;;;4999131;28;20392;-85
2023/01/05 05:22:33;;;;;;;0.13;0.10;;;;;;;;;;4999124;28;20029;-85
2023/01/05 05:24:59;;;;;;;0.95;0.30;;;;;;;;;;4999738;28;20045;-85
2023/01/05 05:27:25;;;;;;;0.80;0.30;;;;;;;;;;5016882;28;20014;-85
2023/01/05 05:29:52;;;;;;;0.10;0.10;;;;;;;;;;5000045;28;20401;-86
2023/01/05 05:32:18;;;;;;;0.38;0.13;;;;;;;;;;5001268;28;20029;-85
2023/01/05 05:34:44;;;;;;;0.25;0.15;;;;;;;;;;5003569;28;20078;-86
2023/01/05 05:37:10;;;;;;;0.10;0.10;;;;;;;;;;5003814;28;20121;-86
2023/01/05 05:39:36;;;;;;;0.30;0.20;;;;;;;;;;5003902;28;20072;-85
2023/01/05 05:42:02;;;;;;;1.27;0.40;;;;;;;;;;5021811;28;20093;-85
2023/01/05 05:44:28;;;;;;;0.90;0.30;;;;;;;;;;5003772;28;20396;-85
2023/01/05 05:46:55;;;;;;;4.10;0.30;;;;;;;;;;5003999;28;20028;-85
2023/01/05 05:49:21;;;;;;;0.20;0.20;;;;;;;;;;5020462;28;20037;-86
2023/01/05 05:51:47;;;;;;;0.63;0.30;;;;;;;;;;5003282;28;20071;-85
2023/01/05 05:54:13;;;;;;;0.30;0.10;;;;;;;;;;5021165;28;20026;-85
2023/01/05 05:56:39;;;;;;;0.85;0.22;;;;;;;;;;5029072;28;20022;-84
2023/01/05 05:59:05;;;;;;;1.95;0.20;;;;;;;;;;5027452;28;20034;-85
2023/01/05 06:01:31;;;;;;;0.17;0.17;;;;;;;;;;5020811;28;20053;-86
2023/01/05 06:03:57;;;;;;;0.15;0.15;;;;;;;;;;5004864;28;20052;-84
2023/01/05 06:06:24;;;;;;;0.30;0.20;;;;;;;;;;5021042;28;20089;-84
2023/01/05 06:08:50;;;;;;;0.40;0.38;;;;;;;;;;5003539;28;20030;-84
2023/01/05 06:11:16;;;;;;;0.20;0.20;;;;;;;;;;5003190;28;20029;-84
2023/01/05 06:13:42;;;;;;;0.20;0.17;;;;;;;;;;4999982;28;20026;-84
2023/01/05 06:16:08;;;;;;;0.28;0.28;;;;;;;;;;4999628;28;20026;-84
2023/01/05 06:18:34;;;;;;;0.80;0.28;;;;;;;;;;5006224;28;20037;-84
2023/01/05 06:21:01;;;;;;;1.55;0.50;;;;;;;;;;5022759;28;20026;-84
2023/01/05 06:23:27;;;;;;;3.60;0.30;;;;;;;;;;5002265;28;20026;-84
2023/01/05 06:25:53;;;;;;;0.50;0.30;;;;;;;;;;5025521;28;20018;-85
2023/01/05 06:28:19;;;;;;;0.40;0.20;;;;;;;;;;5010324;28;20411;-84
2023/01/05 06:30:46;;;;;;;0.25;0.20;;;;;;;;;;5000872;28;20029;-84
2023/01/05 06:33:12;;;;;;;0.43;0.38;;;;;;;;;;5005809;28;20026;-84
2023/01/05 06:35:38;;;;;;;0.50;0.50;;;;;;;;;;5006888;28;20034;-84
2023/01/05 06:38:04;;;;;;;0.20;0.20;;;;;;;;;;5016549;28;20037;-84
2023/01/05 06:40:30;;;;;;;0.85;0.82;;;;;;;;;;5038333;28;20037;-87
2023/01/05 06:42:56;;;;;;;0.65;0.30;;;;;;;;;;5022840;28;20057;-85
2023/01/05 06:45:22;;;;;;;0.20;0.20;;;;;;;;;;5025450;28;20033;-85
2023/01/05 06:47:49;;;;;;;0.13;0.13;;;;;;;;;;5037743;28;20105;-89
2023/01/05 06:50:15;;;;;;;0.20;0.20;;;;;;;;;;5036453;28;20174;-84
2023/01/05 06:52:41;;;;;;;0.98;0.20;;;;;;;;;;5003875;28;20053;-84
2023/01/05 06:55:08;;;;;;;0.68;0.30;;;;;;;;;;4993800;28;20032;-84
2023/01/05 06:57:35;;;;;;;0.30;0.30;;;;;;;;;;5018514;28;20030;-84
2023/01/05 07:00:01;;;;;;;4.80;0.90;;;;;;;;;;5019443;28;20026;-83
2023/01/05 07:02:28;;;;;;;0.20;0.20;;;;;;;;;;5017883;28;20022;-83
2023/01/05 07:04:54;;;;;;;0.57;0.30;;;;;;;;;;4999098;28;20036;-82
2023/01/05 07:07:20;;;;;;;1.55;0.10;;;;;;;;;;5016790;28;20022;-83
2023/01/05 07:09:48;;;;;;;0.30;0.30;;;;;;;;;;5023063;28;20021;-83
2023/01/05 07:12:14;;;;;;;0.52;0.20;;;;;;;;;;5019323;28;20028;-82
2023/01/05 07:14:40;;;;;;;0.95;0.20;;;;;;;;;;4998788;28;20100;-83
2023/01/05 07:17:06;;;;;;;0.20;0.20;;;;;;;;;;5016903;28;20030;-82
2023/01/05 07:19:32;;;;;;;0.20;0.20;;;;;;;;;;5004877;28;20022;-82
2023/01/05 07:21:58;;;;;;;0.47;0.28;;;;;;;;;;5026727;28;20105;-82
2023/01/05 07:24:25;;;;;;;0.85;0.35;;;;;;;;;;4999953;28;20400;-82
2023/01/05 07:26:51;;;;;;;0.28;0.28;;;;;;;;;;5016965;28;20022;-83
2023/01/05 07:29:20;;;;;;;0.20;0.20;;;;;;;;;;5000860;28;20022;-85
2023/01/05 07:31:50;;;;;;;0.20;0.20;;;;;;;;;;5005310;28;20089;-86
2023/01/05 07:34:20;;;;;;;0.30;0.30;;;;;;;;;;5002731;28;20415;-88
2023/01/05 07:36:46;;;;;;;0.40;0.40;;;;;;;;;;5017179;28;20030;-89
2023/01/05 07:39:12;;;;;;;0.70;0.20;;;;;;;;;;5000297;28;20038;-88
2023/01/05 07:41:38;;;;;;;0.20;0.20;;;;;;;;;;5016849;28;20030;-88
2023/01/05 07:44:04;;;;;;;0.20;0.20;;;;;;;;;;5029279;28;20029;-87
2023/01/05 07:46:30;;;;;;;0.28;0.28;;;;;;;;;;5016158;28;20026;-87
2023/01/05 07:48:57;;;;;;;0.20;0.20;;;;;;;;;;5014356;28;20045;-88
2023/01/05 07:51:23;;;;;;;0.10;0.10;;;;;;;;;;5003904;28;20029;-88
2023/01/05 07:53:50;;;;;;;0.28;0.28;;;;;;;;;;5017539;28;20214;-88
2023/01/05 07:56:16;;;;;;;0.20;0.20;;;;;;;;;;5005403;28;20075;-87
2023/01/05 07:58:42;;;;;;;0.82;0.32;;;;;;;;;;4997778;28;20028;-88
2023/01/05 08:01:10;;;;;;;0.55;0.22;;;;;;;;;;5006982;28;20026;-88
2023/01/05 08:03:36;;;;;;;0.63;0.45;;;;;;;;;;4997978;28;20034;-87
2023/01/05 08:06:06;;;;;;;1.23;0.60;;;;;;;;;;4997619;28;20018;-87
2023/01/05 08:08:32;;;;;;;0.32;0.30;;;;;;;;;;5016301;28;20018;-86
2023/01/05 08:10:58;;;;;;;0.45;0.20;;;;;;;;;;5016730;28;20392;-88
2023/01/05 08:16:09;;;;;;;0.20;0.20;;;;;;;;;;5016735;28;20077;-87
2023/01/05 08:18:35;;;;;;;0.28;0.28;;;;;;;;;;5009157;28;20030;-87
2023/01/05 08:21:03;;;;;;;0.22;0.20;;;;;;;;;;4999658;28;20443;-87
2023/01/05 08:23:30;;;;;;;0.25;0.20;;;;;;;;;;5002494;28;20477;-88
2023/01/05 08:25:56;;;;;;;0.25;0.25;;;;;;;;;;5009983;28;20362;-88
2023/01/05 08:28:25;;;;;;;0.20;0.20;;;;;;;;;;5016003;28;20018;-87
2023/01/05 08:30:51;;;;;;;0.47;0.43;;;;;;;;;;5014442;28;20029;-87
2023/01/05 08:33:20;;;;;;;0.20;0.20;;;;;;;;;;5009151;28;20020;-88
2023/01/05 08:35:46;;;;;;;0.90;0.30;;;;;;;;;;5009022;28;20034;-88
2023/01/05 08:38:12;;;;;;;1.40;0.30;;;;;;;;;;5015505;28;20376;-88
2023/01/05 08:40:38;;;;;;;0.30;0.30;;;;;;;;;;5014374;28;20029;-87
2023/01/05 08:43:05;;;;;;;0.20;0.20;;;;;;;;;;5003958;28;20026;-87
2023/01/05 08:45:32;;;;;;;0.30;0.30;;;;;;;;;;5006714;28;20033;-87
2023/01/05 08:47:58;;;;;;;1.00;0.15;;;;;;;;;;4998264;28;20038;-87
2023/01/05 08:50:24;;;;;;;0.85;0.25;;;;;;;;;;5016262;28;20022;-87
2023/01/05 08:52:50;;;;;;;2.17;0.43;;;;;;;;;;5015423;28;20026;-87
2023/01/05 08:55:16;;;;;;;0.45;0.45;;;;;;;;;;5017055;28;20455;-87
2023/01/05 08:57:42;;;;;;;0.20;0.20;;;;;;;;;;5016560;28;20033;-87
2023/01/05 09:00:09;;;;;;;0.88;0.40;;;;;;;;;;5000098;28;20093;-87
2023/01/05 09:02:35;;;;;;;0.52;0.47;;;;;;;;;;5020918;28;20053;-87
2023/01/05 09:05:01;;;;;;;0.75;0.40;;;;;;;;;;5011921;28;20030;-87
2023/01/05 09:07:27;;;;;;;0.38;0.30;;;;;;;;;;5013560;28;20042;-87
2023/01/05 09:09:54;;;;;;;0.75;0.30;;;;;;;;;;5026728;28;20041;-88
2023/01/05 09:12:20;;;;;;;0.63;0.30;;;;;;;;;;5023638;28;20041;-87
2023/01/05 09:14:46;;;;;;;0.70;0.40;;;;;;;;;;5041056;28;20041;-86
2023/01/05 09:17:12;;;;;;;0.63;0.30;;;;;;;;;;5020924;28;20017;-88
2023/01/05 09:19:38;;;;;;;0.40;0.35;;;;;;;;;;5002037;28;20026;-89
2023/01/05 09:22:04;;;;;;;1.73;0.57;;;;;;;;;;5009961;28;20054;-89
2023/01/05 09:24:30;;;;;;;1.17;0.50;;;;;;;;;;5030792;28;20046;-86
2023/01/05 09:26:56;;;;;;;0.50;0.50;;;;;;;;;;5003388;28;20025;-88
2023/01/05 09:29:22;;;;;;;0.95;0.40;;;;;;;;;;5024163;28;20056;-87
2023/01/05 09:31:49;;;;;;;0.30;0.30;;;;;;;;;;5009689;28;20036;-88
2023/01/05 09:34:16;;;;;;;0.35;0.35;;;;;;;;;;5023277;28;20018;-88
2023/01/05 09:36:42;;;;;;;0.13;0.10;;;;;;;;;;5003779;28;20053;-87
2023/01/05 09:39:09;;;;;;;0.40;0.40;;;;;;;;;;5009218;28;20029;-88
2023/01/05 09:41:35;;;;;;;1.02;0.30;;;;;;;;;;5003317;28;20515;-87
2023/01/05 09:44:06;;;;;;;0.30;0.22;;;;;;;;;;5002724;28;20026;-88
2023/01/05 09:46:34;;;;;;;0.70;0.30;;;;;;;;;;5019107;28;20041;-88
2023/01/05 09:49:03;;;;;;;0.93;0.30;;;;;;;;;;5022612;28;20030;-88
2023/01/05 09:51:29;;;;;;;3.10;0.20;;;;;;;;;;5032422;28;20085;-88
2023/01/05 09:53:56;;;;;;;0.20;0.20;;;;;;;;;;5014254;28;20108;-88
2023/01/05 09:56:28;;;;;;;0.30;0.20;;;;;;;;;;4992770;28;20027;-88
2023/01/05 09:59:01;;;;;;;0.35;0.20;;;;;;;;;;5023157;28;20058;-89
2023/01/05 10:01:27;;;;;;;;;;;;;;;;;;5025642;28;20109;-89
2023/01/05 10:03:56;;;;;;;0.52;0.32;;;;;;;;;;5020210;28;19941;-89
2023/01/05 10:06:25;;;;;;;0.57;0.20;;;;;;;;;;5008270;28;20111;-88
2023/01/05 10:08:51;;;;;;;0.75;0.30;;;;;;;;;;4987056;28;20025;-87
2023/01/05 10:14:12;;;;;;;0.55;0.30;;;;;;;;;;5036482;28;20069;-84
2023/01/05 10:16:40;;;;;;;0.25;0.25;;;;;;;;;;5013579;28;20102;-84
2023/01/05 10:19:10;;;;;;;1.38;0.20;;;;;;;;;;5019045;28;20085;-84
2023/01/05 10:21:44;;;;;;;0.47;0.32;;;;;;;;;;5020935;28;20037;-84
2023/01/05 10:24:16;;;;;;;1.35;0.30;;;;;;;;;;5018614;28;20041;-84
2023/01/05 10:26:47;;;;;;;2.53;0.30;;;;;;;;;;5018288;28;20436;-85
2023/01/05 10:29:15;;;;;;;0.30;0.20;;;;;;;;;;5018349;28;20026;-85
2023/01/05 10:31:45;;;;;;;0.65;0.13;;;;;;;;;;5012516;28;20053;-84
2023/01/05 10:34:34;;;;;;;1.33;0.10;;;;;;;;;;5029145;28;20041;-84
2023/01/05 10:37:20;;;;;;;0.28;0.22;;;;;;;;;;5033521;28;20034;-84
2023/01/05 10:40:05;;;;;;;0.75;0.20;;;;;;;;;;5020338;28;20038;-84
2023/01/05 10:42:33;;;;;;;0.88;0.30;;;;;;;;;;5024508;28;20072;-84
2023/01/05 10:45:02;;;;;;;2.00;0.15;;;;;;;;;;5037476;28;20049;-84
2023/01/05 10:47:29;;;;;;;1.45;0.30;;;;;;;;;;5032513;28;20029;-84
2023/01/05 10:49:55;;;;;;;0.57;0.30;;;;;;;;;;5021208;28;20080;-85
2023/01/05 10:52:22;;;;;;;0.63;0.30;;;;;;;;;;5011802;28;20476;-85
2023/01/05 10:54:51;;;;;;;0.35;0.30;;;;;;;;;;5020684;28;20034;-84
2023/01/05 10:57:32;;;;;;;1.13;0.32;;;;;;;;;;5019150;28;20025;-84
2023/01/05 11:00:01;;;;;;;0.93;0.30;;;;;;;;;;5018689;28;20029;-84
2023/01/05 11:02:34;;;;;;;0.68;0.20;;;;;;;;;;5018114;28;20494;-84
2023/01/05 11:05:20;;;;;;;1.13;0.40;;;;;;;;;;5016773;28;20037;-85
2023/01/05 11:07:48;;;;;;;0.90;0.50;;;;;;;;;;5005830;28;20107;-84
2023/01/05 11:10:21;;;;;;;0.52;0.43;;;;;;;;;;5020234;28;20051;-85
2023/01/05 11:12:52;;;;;;;0.40;0.20;;;;;;;;;;5012712;28;20026;-84
2023/01/05 11:15:18;;;;;;;0.35;0.30;;;;;;;;;;5022233;28;20029;-84
2023/01/05 11:17:45;;;;;;;0.45;0.10;;;;;;;;;;5028156;28;20057;-84
2023/01/05 11:20:16;;;;;;;0.22;0.20;;;;;;;;;;5014335;28;20080;-83
2023/01/05 11:22:43;;;;;;;4.25;0.20;;;;;;;;;;5028172;28;20026;-83
2023/01/05 11:25:36;;;;;;;1.05;0.22;;;;;;;;;;5010140;28;20037;-84
2023/01/05 11:31:46;;;;;;;1.20;0.20;;;;;;;;;;5030337;28;20045;-84
2023/01/05 11:34:43;;;;;;;0.20;0.20;;;;;;;;;;5007741;28;20033;-83
2023/01/05 11:37:31;;;;;;;1.58;0.10;;;;;;;;;;5027576;28;20022;-84
2023/01/05 11:43:32;;;;;;;1.15;0.40;;;;;;;;;;4962792;29;20033;-85
2023/01/05 11:49:30;;;;;;;1.45;0.55;;;;;;;;;;4933387;29;20079;-86
2023/01/05 11:52:18;;;;;;;0.22;0.22;;;;;;;;;;4911609;29;20039;-83
2023/01/05 11:54:48;;;;;;;0.20;0.20;;;;;;;;;;4924413;29;20036;-83
2023/01/05 11:57:54;;;;;;;1.05;0.47;;;;;;;;;;4914856;29;20081;-84
2023/01/05 12:00:53;;;;;;;0.95;0.40;;;;;;;;;;4849424;29;20033;-84
2023/01/05 12:03:40;;;;;;;2.00;0.68;;;;;;;;;;4862172;29;20038;-85
2023/01/05 12:06:30;;;;;;;1.52;0.28;;;;;;;;;;4866431;29;20037;-84
2023/01/05 12:09:14;;;;;;;0.73;0.30;;;;;;;;;;4961603;28;20039;-85
2023/01/05 12:12:04;;;;;;;0.40;0.40;;;;;;;;;;4969323;28;20095;-85
2023/01/05 12:14:51;;;;;;;1.55;0.70;;;;;;;;;;4987567;28;20039;-84
2023/01/05 12:17:40;;;;;;;1.42;0.43;;;;;;;;;;4993239;28;20038;-85
2023/01/05 12:33:16;;;;;;;0.47;0.40;;;;;;;;;;5019080;28;20480;-85
2023/01/05 12:54:02;;;;;;;;;;;;;;;;;;4956834;29;20079;-85
2023/01/05 12:56:59;;;;;;;0.85;0.30;;;;;;;;;;4949743;28;19910;-86
2023/01/05 13:03:18;;;;;;;0.70;0.40;;;;;;;;;;4957980;29;20074;-85
2023/01/05 13:05:59;;;;;;;0.55;0.40;;;;;;;;;;4864571;29;20468;-85
2023/01/05 13:08:38;;;;;;;0.65;0.50;;;;;;;;;;4956187;28;20249;-85
2023/01/05 13:11:51;;;;;;;1.20;0.60;;;;;;;;;;4937276;29;20051;-85
2023/01/05 13:18:10;;;;;;;1.40;0.57;;;;;;;;;;4864340;29;20081;-85
2023/01/05 13:27:03;;;;;;;1.30;0.47;;;;;;;;;;4862614;29;19915;-86
2023/01/05 13:35:34;;;;;;;0.95;0.43;;;;;;;;;;4865869;29;19911;-85
2023/01/05 13:38:19;;;;;;;0.73;0.60;;;;;;;;;;4941012;29;20035;-86
2023/01/05 13:40:45;;;;;;;0.32;0.32;;;;;;;;;;4940443;29;20042;-87
2023/01/05 13:43:35;;;;;;;0.43;0.38;;;;;;;;;;4939855;29;20028;-84
2023/01/05 13:49:31;;;;;;;1.67;0.52;;;;;;;;;;5000868;28;20045;-84
2023/01/05 13:52:40;;;;;;;1.50;0.80;;;;;;;;;;5014962;28;20022;-83
2023/01/05 13:55:34;;;;;;;1.10;0.47;;;;;;;;;;5032722;28;20052;-85
2023/01/05 13:58:03;;;;;;;1.60;0.40;;;;;;;;;;5002721;28;20041;-85
2023/01/05 14:00:40;;;;;;;0.93;0.32;;;;;;;;;;5026505;28;20088;-84
2023/01/05 14:03:46;;;;;;;0.32;0.30;;;;;;;;;;4991690;28;20350;-84
2023/01/05 14:06:36;;;;;;;0.40;0.40;;;;;;;;;;4923499;29;20061;-87
2023/01/05 14:09:13;;;;;;;3.92;0.60;;;;;;;;;;4907943;29;20040;-86
2023/01/05 14:11:59;;;;;;;0.40;0.40;;;;;;;;;;4980503;28;20520;-86
2023/01/05 14:14:26;;;;;;;0.80;0.60;;;;;;;;;;5005714;28;20033;-86
2023/01/05 14:16:53;;;;;;;0.75;0.50;;;;;;;;;;5026222;28;20036;-85
2023/01/05 14:19:28;;;;;;;0.52;0.50;;;;;;;;;;5017599;28;20052;-86
2023/01/05 14:21:58;;;;;;;1.40;0.60;;;;;;;;;;5004238;28;20029;-86
2023/01/05 14:24:29;;;;;;;3.20;0.70;;;;;;;;;;5022045;28;20026;-87
2023/01/05 14:27:01;;;;;;;0.60;0.50;;;;;;;;;;5004073;28;20025;-87
2023/01/05 14:29:48;;;;;;;1.92;0.57;;;;;;;;;;5017871;28;20041;-88
2023/01/05 14:32:35;;;;;;;1.10;0.90;;;;;;;;;;5022114;28;20041;-86
2023/01/05 14:35:10;;;;;;;2.08;0.50;;;;;;;;;;5021920;28;20014;-87
2023/01/05 14:37:38;;;;;;;1.05;0.60;;;;;;;;;;5024318;28;20029;-86
2023/01/05 14:40:14;;;;;;;0.60;0.50;;;;;;;;;;5005835;28;20007;-88
2023/01/05 14:42:46;;;;;;;1.65;0.65;;;;;;;;;;5019508;28;20032;-86
2023/01/05 14:45:21;;;;;;;5.72;1.20;;;;;;;;;;5016544;28;20049;-87
2023/01/05 14:47:52;;;;;;;3.15;1.30;;;;;;;;;;5013609;28;20030;-86
2023/01/05 14:50:34;;;;;;;5.45;1.50;;;;;;;;;;5019982;28;20018;-85
2023/01/05 14:53:02;;;;;;;3.30;1.58;;;;;;;;;;5009481;28;20053;-87
2023/01/05 14:55:31;;;;;;;3.95;1.30;;;;;;;;;;5029685;28;20030;-86
2023/01/05 14:57:59;;;;;;;4.10;2.00;;;;;;;;;;5028341;28;20033;-87
2023/01/05 15:00:25;;;;;;;5.25;1.15;;;;;;;;;;5024570;28;20222;-86
2023/01/05 15:02:55;;;;;;;1.67;1.17;;;;;;;;;;5021073;28;20030;-87
2023/01/05 15:05:21;;;;;;;4.45;1.40;;;;;;;;;;5013192;28;20029;-87
2023/01/05 15:08:11;;;;;;;3.10;1.05;;;;;;;;;;5022000;28;20041;-87
2023/01/05 15:10:57;;;;;;;4.50;1.42;;;;;;;;;;5011903;28;20076;-87
2023/01/05 15:13:23;;;;;;;2.67;1.00;;;;;;;;;;5028386;28;20026;-87
2023/01/05 15:15:52;;;;;;;2.08;1.30;;;;;;;;;;5019561;28;20034;-86
2023/01/05 15:18:24;;;;;;;5.53;1.80;;;;;;;;;;5003764;28;20026;-86
2023/01/05 15:21:02;;;;;;;4.30;1.00;;;;;;;;;;5000835;28;20032;-86
2023/01/05 15:23:47;;;;;;;5.78;1.23;;;;;;;;;;5017418;28;20026;-86
2023/01/05 15:26:15;;;;;;;6.15;1.17;;;;;;;;;;5017452;28;20022;-85
2023/01/05 15:28:51;;;;;;;4.97;1.00;;;;;;;;;;5016712;28;20045;-86
2023/01/05 15:31:20;;;;;;;3.33;1.15;;;;;;;;;;5017942;28;20042;-86
2023/01/05 15:34:06;;;;;;;3.50;0.75;;;;;;;;;;5018131;28;20067;-85
2023/01/05 15:36:37;;;;;;;6.38;1.20;;;;;;;;;;5019130;28;20026;-85
2023/01/05 15:39:20;;;;;;;3.80;0.77;;;;;;;;;;5017541;28;20026;-86
2023/01/05 15:41:47;;;;;;;3.50;0.98;;;;;;;;;;5017566;28;20037;-85
2023/01/05 15:44:18;;;;;;;4.00;1.20;;;;;;;;;;5017192;28;20616;-86
2023/01/05 15:46:44;;;;;;;2.33;0.70;;;;;;;;;;5015996;28;20512;-86
2023/01/05 15:49:17;;;;;;;5.53;1.08;;;;;;;;;;5007665;28;20388;-86
2023/01/05 15:51:49;;;;;;;2.80;1.08;;;;;;;;;;5000180;28;20022;-87
2023/01/05 15:54:23;;;;;;;4.28;1.08;;;;;;;;;;5014437;28;20030;-86
2023/01/05 15:56:49;;;;;;;2.03;1.17;;;;;;;;;;5033142;28;20034;-85
2023/01/05 15:59:27;;;;;;;2.72;0.93;;;;;;;;;;5017648;28;20047;-85
2023/01/05 16:01:53;;;;;;;5.55;1.17;;;;;;;;;;5016138;28;20041;-86
2023/01/05 16:04:19;;;;;;;4.90;1.20;;;;;;;;;;5017117;28;20041;-85
2023/01/05 16:06:47;;;;;;;5.38;1.10;;;;;;;;;;5015227;28;20045;-85
2023/01/05 16:09:20;;;;;;;4.97;1.27;;;;;;;;;;5017104;28;20384;-86
2023/01/05 16:11:48;;;;;;;3.28;1.08;;;;;;;;;;5015684;28;20032;-86
2023/01/05 16:14:20;;;;;;;4.28;1.33;;;;;;;;;;5017893;28;20037;-86
2023/01/05 16:16:55;;;;;;;3.05;1.40;;;;;;;;;;5018080;28;20029;-86
2023/01/05 16:19:47;;;;;;;5.72;1.20;;;;;;;;;;5017542;28;20432;-86
2023/01/05 16:22:25;;;;;;;4.15;1.27;;;;;;;;;;4991116;28;20111;-86
2023/01/05 16:25:00;;;;;;;5.05;1.30;;;;;;;;;;4999764;28;20097;-86
2023/01/05 16:27:27;;;;;;;4.78;1.60;;;;;;;;;;5000177;28;20033;-85
2023/01/05 16:29:53;;;;;;;3.85;1.65;;;;;;;;;;5017523;28;20026;-87
2023/01/05 16:32:30;;;;;;;4.63;1.90;;;;;;;;;;4999300;28;20026;-87
2023/01/05 16:35:16;;;;;;;3.67;1.98;;;;;;;;;;5016762;28;20033;-86
2023/01/05 16:37:42;;;;;;;7.43;1.85;;;;;;;;;;5010532;28;20102;-87
2023/01/05 16:40:19;;;;;;;10.30;2.85;;;;;;;;;;5015519;28;20026;-87
2023/01/05 16:42:47;;;;;;;6.80;2.05;;;;;;;;;;5016081;28;20022;-88
2023/01/05 16:45:23;;;;;;;4.85;1.63;;;;;;;;;;5017472;28;20048;-87